Sarah C. — WDD9226 — position and weather

sailwx.info

Track history (hours):
 
Tides and Currents Weather Stations Pressure Air Temp Water Temp Dewpoint Dewpoint Depression Visibility Wind Speed Wind Dir Waves Ship Positions

Sarah C.

Owner: Curtin Maritime Corporation, Long Beach, CA. More information available from US FCC via Universal Licensing System and Coast Guard Vessel Documentation Center.

Last reported at 2017-Oct-17 13:54 UTC. Time now 2017-Oct-17 22:54 UTC.
Position N 35°32' W 121°16'.

Length 20 m; draft 3 m.

Type: Towing. MMSI: 367308610.

Date/timePositionNaut miles runAvg speedWind from/ knotsBaromVisibWave heightAir tempDewpointWater temp
2017-Oct-17 13:54N 35°32' W 121°16'3 6.5
2017-Oct-17 13:25N 35°29' W 121°14'3 6.4
2017-Oct-17 13:00N 35°27' W 121°12'8 6.5
2017-Oct-17 11:43N 35°20' W 121°07'1 6.6
2017-Oct-17 11:30N 35°18' W 121°06'3 6.3
2017-Oct-17 11:00N 35°16' W 121°04'3 6.5
2017-Oct-17 10:30N 35°13' W 121°02'3 6.5
2017-Oct-17 09:59N 35°10' W 121°00'3 6.4
2017-Oct-17 09:30N 35°07' W 120°58'3 6.4
2017-Oct-17 09:00N 35°04' W 120°57'3 6.4
2017-Oct-17 08:30N 35°02' W 120°55'3 6.2
2017-Oct-17 08:00N 34°59' W 120°53'3 6.1
2017-Oct-17 07:31N 34°57' W 120°51'3 6.0
2017-Oct-17 07:00N 34°54' W 120°49'3 6.3
2017-Oct-17 06:30N 34°51' W 120°48'3 6.7
2017-Oct-17 06:00N 34°47' W 120°48'3 6.6
2017-Oct-17 05:30N 34°44' W 120°47'3 6.6
2017-Oct-17 05:00N 34°41' W 120°47'3 6.5
2017-Oct-17 04:30N 34°38' W 120°47'3 6.3
2017-Oct-17 04:00N 34°35' W 120°44'3 6.6
2017-Oct-17 03:30N 34°33' W 120°41'3 6.5
2017-Oct-17 03:00N 34°31' W 120°38'3 6.1
2017-Oct-17 02:29N 34°29' W 120°36'3 5.9
2017-Oct-17 02:00N 34°27' W 120°33'3 5.8
2017-Oct-17 01:30N 34°25' W 120°30'3 5.5
2017-Oct-17 01:00N 34°23' W 120°28'3 5.5
2017-Oct-17 00:30N 34°23' W 120°24'3 5.4
2017-Oct-17 00:00N 34°22' W 120°21'3 5.3
2017-Oct-16 23:28N 34°22' W 120°18'3 5.7
2017-Oct-16 23:00N 34°22' W 120°14'3 5.7
2017-Oct-16 22:29N 34°21' W 120°11'3 5.8
2017-Oct-16 22:00N 34°21' W 120°08'3 6.0
2017-Oct-16 21:30N 34°21' W 120°04'3 6.3
2017-Oct-16 21:00N 34°20' W 120°00'3 6.3
2017-Oct-16 20:30N 34°20' W 119°56'3 6.3
2017-Oct-16 19:59N 34°19' W 119°52'3 6.2
2017-Oct-16 19:30N 34°19' W 119°49'3 6.0
2017-Oct-16 18:59N 34°20' W 119°45'3 5.6
2017-Oct-16 18:30N 34°21' W 119°43'3 5.0
2017-Oct-16 18:00N 34°23' W 119°40'1 2.5
2017-Oct-16 17:30N 34°24' W 119°40'0 0.8
2017-Oct-16 16:59N 34°25' W 119°40'0 0.0
2017-Oct-16 16:29N 34°25' W 119°40'0 0.0
2017-Oct-16 16:00N 34°25' W 119°40'0 0.0
2017-Oct-16 15:25N 34°25' W 119°40'0 1.1
2017-Oct-16 15:00N 34°24' W 119°40'3 6.2
2017-Oct-16 14:28N 34°21' W 119°40'8 8.1
2017-Oct-16 13:30N 34°13' W 119°37'4 7.3
2017-Oct-16 12:59N 34°11' W 119°33'4 8.1
2017-Oct-16 12:30N 34°09' W 119°29'5 8.3
2017-Oct-16 11:53N 34°07' W 119°23'3 8.5
2017-Oct-16 11:29N 34°06' W 119°19'4 8.5
2017-Oct-16 11:00N 34°04' W 119°15'5 8.7
2017-Oct-16 10:27N 34°02' W 119°10'4 8.6
2017-Oct-16 10:00N 34°00' W 119°06'4 8.5
2017-Oct-16 09:30N 33°59' W 119°01'4 8.4
2017-Oct-16 09:00N 33°57' W 118°56'5 8.2
2017-Oct-16 08:26N 33°54' W 118°51'4 8.1
2017-Oct-16 07:56N 33°52' W 118°47'4 7.9
2017-Oct-16 07:30N 33°51' W 118°44'10 7.9
2017-Oct-16 06:12N 33°46' W 118°33'2 8.3
2017-Oct-16 06:00N 33°45' W 118°31'13 7.7
2017-Oct-16 04:15N 33°41' W 118°16'3 1.3
2017-Oct-16 02:16N 33°44' W 118°16'0 0.9
2017-Oct-16 01:56N 33°43' W 118°16'3 6.1
2017-Oct-16 01:27N 33°45' W 118°13'2 0.8
2017-Oct-15 23:19N 33°46' W 118°13'0 0.0
2017-Oct-15 20:31N 33°46' W 118°13'0 0.0
2017-Oct-15 20:25N 33°46' W 118°13'0 0.0
2017-Oct-15 19:55N 33°46' W 118°13'0 0.0
2017-Oct-15 19:01N 33°46' W 118°13'0 0.0
2017-Oct-15 18:43N 33°46' W 118°13'0 0.0
2017-Oct-15 18:19N 33°46' W 118°13'0 0.0
2017-Oct-15 17:49N 33°46' W 118°13'0 0.0
2017-Oct-15 17:25N 33°46' W 118°13'0 0.0
2017-Oct-15 16:16N 33°46' W 118°13'0 0.0
2017-Oct-15 15:22N 33°46' W 118°13'0 0.0
2017-Oct-15 14:52N 33°46' W 118°13'0 0.0
2017-Oct-15 13:52N 33°46' W 118°13'0 0.0
2017-Oct-15 13:22N 33°46' W 118°13'0 0.0
2017-Oct-15 12:58N 33°46' W 118°13'0 0.0
2017-Oct-15 12:25N 33°46' W 118°13'0 0.0
2017-Oct-15 10:16N 33°46' W 118°13'0 0.0
2017-Oct-15 09:58N 33°46' W 118°13'0 0.0
2017-Oct-15 09:28N 33°46' W 118°13'0 0.0
2017-Oct-15 08:55N 33°46' W 118°13'0 0.0
2017-Oct-15 08:28N 33°46' W 118°13'0 0.0
2017-Oct-15 07:58N 33°46' W 118°13'0 0.0
2017-Oct-15 07:28N 33°46' W 118°13'0 0.0
2017-Oct-15 06:58N 33°46' W 118°13'0 0.0
2017-Oct-15 06:28N 33°46' W 118°13'0 0.0
2017-Oct-15 05:58N 33°46' W 118°13'0 0.0
2017-Oct-15 05:28N 33°46' W 118°13'0 0.0
2017-Oct-15 04:22N 33°46' W 118°13'0 0.0
2017-Oct-15 03:58N 33°46' W 118°13'0 0.0
2017-Oct-15 03:25N 33°46' W 118°13'0 0.0
2017-Oct-15 02:55N 33°46' W 118°13'0 0.0
2017-Oct-15 02:28N 33°46' W 118°13'0 0.0
2017-Oct-15 01:58N 33°46' W 118°13'0 0.0
2017-Oct-15 01:28N 33°46' W 118°13'0 0.0
2017-Oct-15 00:58N 33°46' W 118°13'0 0.0
2017-Oct-15 00:22N 33°46' W 118°13'0 0.0
2017-Oct-14 23:58N 33°46' W 118°13'0 0.0
2017-Oct-14 23:28N 33°46' W 118°13'0 0.0
2017-Oct-14 22:58N 33°46' W 118°13'0 0.0
2017-Oct-14 22:28N 33°46' W 118°13'0 0.0
2017-Oct-14 21:58N 33°46' W 118°13'0 0.0
2017-Oct-14 21:28N 33°46' W 118°13'0 0.0
2017-Oct-14 20:58N 33°46' W 118°13'0 0.0
2017-Oct-14 20:28N 33°46' W 118°13'0 0.0
2017-Oct-14 19:58N 33°46' W 118°13'0 0.0
2017-Oct-14 19:22N 33°46' W 118°13'0 0.0
2017-Oct-14 18:58N 33°46' W 118°13'0 0.0
2017-Oct-14 18:25N 33°46' W 118°13'0 0.0
2017-Oct-14 17:52N 33°46' W 118°13'0 0.0
2017-Oct-14 09:40N 33°46' W 118°13'0 0.0
2017-Oct-14 09:22N 33°46' W 118°13'0 0.0
2017-Oct-14 07:58N 33°46' W 118°13'0 0.0
2017-Oct-14 07:16N 33°46' W 118°13'0 0.0
2017-Oct-14 06:58N 33°46' W 118°13'0 0.0
2017-Oct-14 06:25N 33°46' W 118°13'0 0.0
2017-Oct-14 05:55N 33°46' W 118°13'0 0.0
2017-Oct-14 05:22N 33°46' W 118°13'0 0.0
2017-Oct-14 04:55N 33°46' W 118°13'0 0.0
2017-Oct-14 04:28N 33°46' W 118°13'0 0.0
2017-Oct-14 03:52N 33°46' W 118°13'0 0.0
2017-Oct-14 03:22N 33°46' W 118°13'0 0.0
2017-Oct-14 02:58N 33°46' W 118°13'0 0.0
2017-Oct-14 02:16N 33°46' W 118°13'0 0.0
2017-Oct-14 01:58N 33°46' W 118°13'0 0.0
2017-Oct-14 01:22N 33°46' W 118°13'0 0.0
2017-Oct-14 00:58N 33°46' W 118°13'0 0.0
2017-Oct-14 00:28N 33°46' W 118°13'0 0.0
2017-Oct-13 23:58N 33°46' W 118°13'0 0.0
2017-Oct-13 23:22N 33°46' W 118°13'0 0.0
2017-Oct-13 21:25N 33°46' W 118°13'0 0.0
2017-Oct-13 20:55N 33°46' W 118°13'0 0.0
2017-Oct-13 19:13N 33°46' W 118°13'0 0.0
2017-Oct-13 17:37N 33°46' W 118°13'0 0.0
2017-Oct-13 17:19N 33°46' W 118°13'0 0.0
2017-Oct-13 16:55N 33°46' W 118°13'0 0.0
2017-Oct-13 13:16N 33°46' W 118°13'0 0.0
2017-Oct-13 12:58N 33°46' W 118°13'0 0.0
2017-Oct-13 12:28N 33°46' W 118°13'0 0.0
2017-Oct-13 11:49N 33°46' W 118°13'0 0.0
2017-Oct-13 11:28N 33°46' W 118°13'0 0.0
2017-Oct-13 10:58N 33°46' W 118°13'0 0.0
2017-Oct-13 10:22N 33°46' W 118°13'0 0.0
2017-Oct-13 09:52N 33°46' W 118°13'0 0.0
2017-Oct-13 09:28N 33°46' W 118°13'0 0.0
2017-Oct-13 08:40N 33°46' W 118°13'0 0.0
2017-Oct-13 08:28N 33°46' W 118°13'0 0.0
2017-Oct-13 07:04N 33°46' W 118°13'0 0.0
2017-Oct-13 06:58N 33°46' W 118°13'0 0.0
2017-Oct-13 06:28N 33°46' W 118°13'0 0.0
2017-Oct-13 05:52N 33°46' W 118°13'0 0.0
2017-Oct-13 01:16N 33°46' W 118°13'0 0.0
2017-Oct-12 19:31N 33°46' W 118°13'0 0.0
2017-Oct-12 18:13N 33°46' W 118°13'0 0.0
2017-Oct-12 09:46N 33°46' W 118°13'0 0.0
2017-Oct-12 09:10N 33°46' W 118°13'0 0.0
2017-Oct-12 08:40N 33°46' W 118°13'0 0.0
2017-Oct-12 08:13N 33°46' W 118°13'0 0.0
2017-Oct-12 07:52N 33°46' W 118°13'0 0.0
2017-Oct-12 07:13N 33°46' W 118°13'0 0.0
2017-Oct-12 06:46N 33°46' W 118°13'0 0.0
2017-Oct-12 06:28N 33°46' W 118°13'0 0.0
2017-Oct-12 05:58N 33°46' W 118°13'0 0.0
2017-Oct-12 05:25N 33°46' W 118°13'0 0.0
2017-Oct-12 03:31N 33°46' W 118°13'0 0.0
2017-Oct-12 01:46N 33°46' W 118°13'0 0.0
2017-Oct-12 01:28N 33°46' W 118°13'0 0.0
2017-Oct-12 00:58N 33°46' W 118°13'0 0.0
2017-Oct-12 00:22N 33°46' W 118°13'0 0.0
2017-Oct-11 23:55N 33°46' W 118°13'0 0.0
2017-Oct-11 23:22N 33°46' W 118°13'0 0.0
2017-Oct-11 22:58N 33°46' W 118°13'0 0.0
2017-Oct-11 20:07N 33°46' W 118°13'0 0.0
2017-Oct-11 19:55N 33°46' W 118°13'0 0.0
2017-Oct-11 16:49N 33°46' W 118°13'0 0.0
2017-Oct-10 23:58N 33°46' W 118°13'0 0.0
2017-Oct-10 23:28N 33°46' W 118°13'0 0.0
2017-Oct-10 22:55N 33°46' W 118°13'0 0.0
2017-Oct-10 22:28N 33°46' W 118°13'0 0.0
2017-Oct-10 21:58N 33°46' W 118°13'0 0.0
2017-Oct-10 21:28N 33°46' W 118°13'0 0.0
2017-Oct-10 20:58N 33°46' W 118°13'0 0.0
2017-Oct-10 20:28N 33°46' W 118°13'0 0.0
2017-Oct-10 19:58N 33°46' W 118°13'0 0.0
2017-Oct-10 19:28N 33°46' W 118°13'0 0.0
2017-Oct-10 18:58N 33°46' W 118°13'0 0.0
2017-Oct-10 17:04N 33°46' W 118°13'0 0.0
2017-Oct-10 16:58N 33°46' W 118°13'0 0.0
2017-Oct-10 16:25N 33°46' W 118°13'0 0.0
2017-Oct-10 15:58N 33°46' W 118°13'0 0.0
2017-Oct-10 15:28N 33°46' W 118°13'0 0.0
2017-Oct-10 14:58N 33°46' W 118°13'0 0.0
2017-Oct-10 13:55N 33°46' W 118°13'0 0.0
2017-Oct-10 13:28N 33°46' W 118°13'0 0.0
2017-Oct-10 12:55N 33°46' W 118°13'0 0.0
2017-Oct-10 12:28N 33°46' W 118°13'0 0.0
2017-Oct-10 11:49N 33°46' W 118°13'0 0.0
2017-Oct-10 11:28N 33°46' W 118°13'0 0.0
2017-Oct-10 10:58N 33°46' W 118°13'0 0.0
2017-Oct-10 10:28N 33°46' W 118°13'0 0.0
2017-Oct-10 09:58N 33°46' W 118°13'0 0.0
2017-Oct-10 09:28N 33°46' W 118°13'0 0.0
2017-Oct-10 08:58N 33°46' W 118°13'0 0.0
2017-Oct-10 08:28N 33°46' W 118°13'0 0.0
2017-Oct-10 07:49N 33°46' W 118°13'0 0.0
2017-Oct-10 07:28N 33°46' W 118°13'0 0.0
2017-Oct-10 06:58N 33°46' W 118°13'0 0.0
2017-Oct-10 06:25N 33°46' W 118°13'0 0.0
2017-Oct-10 05:58N 33°46' W 118°13'0 0.0
2017-Oct-10 05:28N 33°46' W 118°13'0 0.0
2017-Oct-10 04:58N 33°46' W 118°13'0 0.0
2017-Oct-10 04:28N 33°46' W 118°13'0 0.0
2017-Oct-10 03:58N 33°46' W 118°13'0 0.0
2017-Oct-10 03:28N 33°46' W 118°13'0 0.0
2017-Oct-10 02:58N 33°46' W 118°13'0 0.0
2017-Oct-10 02:28N 33°46' W 118°13'0 0.0
2017-Oct-10 01:58N 33°46' W 118°13'0 0.0
2017-Oct-10 01:28N 33°46' W 118°13'0 0.0
2017-Oct-10 00:55N 33°46' W 118°13'0 0.0
2017-Oct-10 00:28N 33°46' W 118°13'0 0.0
2017-Oct-09 23:58N 33°46' W 118°13'0 0.0
2017-Oct-09 23:28N 33°46' W 118°13'0 0.0
2017-Oct-09 22:58N 33°46' W 118°13'0 0.0
2017-Oct-09 22:28N 33°46' W 118°13'0 0.0
2017-Oct-09 21:58N 33°46' W 118°13'0 0.0
2017-Oct-09 21:28N 33°46' W 118°13'0 0.0
2017-Oct-09 20:46N 33°46' W 118°13'0 0.0
2017-Oct-09 20:22N 33°46' W 118°13'0 0.0
2017-Oct-09 19:58N 33°46' W 118°13'0 0.0
2017-Oct-09 18:46N 33°46' W 118°13'0 0.0
2017-Oct-09 18:28N 33°46' W 118°13'0 0.0
2017-Oct-09 17:58N 33°46' W 118°13'0 0.0
2017-Oct-09 17:22N 33°46' W 118°13'0 0.0
2017-Oct-09 16:58N 33°46' W 118°13'0 0.0
2017-Oct-09 02:10N 33°46' W 118°13'0 0.0
2017-Oct-09 01:46N 33°46' W 118°13'0 0.0
2017-Oct-08 22:58N 33°46' W 118°13'0 0.0
2017-Oct-08 22:28N 33°46' W 118°13'0 0.0
2017-Oct-08 21:52N 33°46' W 118°13'0 0.0
2017-Oct-08 18:10N 33°46' W 118°13'0 0.0
2017-Oct-08 17:52N 33°46' W 118°13'0 0.0
2017-Oct-08 17:16N 33°46' W 118°13'0 0.0
2017-Oct-08 16:58N 33°46' W 118°13'0 0.0
2017-Oct-08 16:28N 33°46' W 118°13'0 0.0
2017-Oct-08 15:52N 33°46' W 118°13'0 0.0
2017-Oct-08 15:28N 33°46' W 118°13'0 0.0
2017-Oct-08 14:55N 33°46' W 118°13'0 0.0
2017-Oct-08 14:25N 33°46' W 118°13'0 0.0
2017-Oct-08 13:49N 33°46' W 118°13'0 0.0
2017-Oct-08 13:28N 33°46' W 118°13'0 0.0
2017-Oct-08 11:04N 33°46' W 118°13'0 0.0
2017-Oct-08 10:40N 33°46' W 118°13'0 0.0
2017-Oct-08 10:19N 33°46' W 118°13'0 0.0
2017-Oct-08 09:58N 33°46' W 118°13'0 0.0
2017-Oct-08 09:25N 33°46' W 118°13'0 0.0
2017-Oct-08 08:58N 33°46' W 118°13'0 0.0
2017-Oct-08 08:25N 33°46' W 118°13'0 0.0
2017-Oct-08 07:40N 33°46' W 118°13'0 0.0
2017-Oct-08 07:28N 33°46' W 118°13'0 0.0
2017-Oct-08 06:58N 33°46' W 118°13'0 0.0
2017-Oct-08 06:25N 33°46' W 118°13'0 0.0
2017-Oct-08 05:58N 33°46' W 118°13'0 0.0
2017-Oct-08 05:28N 33°46' W 118°13'0 0.0
2017-Oct-08 04:40N 33°46' W 118°13'0 0.0
2017-Oct-08 04:22N 33°46' W 118°13'0 0.0
2017-Oct-08 03:58N 33°46' W 118°13'0 0.0
2017-Oct-08 03:10N 33°46' W 118°13'0 0.0
2017-Oct-08 02:58N 33°46' W 118°13'0 0.0
2017-Oct-08 02:10N 33°46' W 118°13'0 0.0
2017-Oct-08 01:52N 33°46' W 118°13'0 0.0
2017-Oct-08 01:28N 33°46' W 118°13'0 0.0
2017-Oct-08 00:58N 33°46' W 118°13'0 0.0
2017-Oct-08 00:22N 33°46' W 118°13'0 0.0
2017-Oct-07 23:58N 33°46' W 118°13'0 0.0
2017-Oct-07 23:28N 33°46' W 118°13'0 0.0
2017-Oct-07 22:58N 33°46' W 118°13'0 0.0
2017-Oct-07 22:28N 33°46' W 118°13'0 0.0
2017-Oct-07 21:58N 33°46' W 118°13'0 0.0
2017-Oct-07 21:22N 33°46' W 118°13'0 0.0
2017-Oct-07 20:58N 33°46' W 118°13'0 0.0
2017-Oct-07 20:28N 33°46' W 118°13'0 0.0
2017-Oct-07 19:58N 33°46' W 118°13'0 0.0
2017-Oct-07 19:28N 33°46' W 118°13'0 0.0
2017-Oct-07 18:58N 33°46' W 118°13'0 0.0
2017-Oct-07 18:22N 33°46' W 118°13'0 0.0
2017-Oct-07 17:58N 33°46' W 118°13'0 0.0
2017-Oct-07 17:28N 33°46' W 118°13'0 0.0
2017-Oct-07 16:52N 33°46' W 118°13'0 0.0
2017-Oct-07 16:28N 33°46' W 118°13'0 0.0
2017-Oct-07 14:58N 33°46' W 118°13'0 0.0
2017-Oct-07 14:25N 33°46' W 118°13'0 0.0
2017-Oct-07 13:58N 33°46' W 118°13'  
Track history (hours):
 
Tides and Currents Weather Stations Pressure Air Temp Water Temp Dewpoint Dewpoint Depression Visibility Wind Speed Wind Dir Waves Ship Positions

Sarah C.

Owner: Curtin Maritime Corporation, Long Beach, CA. More information available from US FCC via Universal Licensing System and Coast Guard Vessel Documentation Center.

Last reported at 2017-Oct-17 13:54 UTC. Time now 2017-Oct-17 22:54 UTC.
Position N 35°32' W 121°16'.

Length 20 m; draft 3 m.

Type: Towing. MMSI: 367308610.

Date/timePositionNaut miles runAvg speedWind from/ knotsBaromVisibWave heightAir tempDewpointWater temp
2017-Oct-17 13:54N 35°32' W 121°16'3 6.5
2017-Oct-17 13:25N 35°29' W 121°14'3 6.4
2017-Oct-17 13:00N 35°27' W 121°12'8 6.5
2017-Oct-17 11:43N 35°20' W 121°07'1 6.6
2017-Oct-17 11:30N 35°18' W 121°06'3 6.3
2017-Oct-17 11:00N 35°16' W 121°04'3 6.5
2017-Oct-17 10:30N 35°13' W 121°02'3 6.5
2017-Oct-17 09:59N 35°10' W 121°00'3 6.4
2017-Oct-17 09:30N 35°07' W 120°58'3 6.4
2017-Oct-17 09:00N 35°04' W 120°57'3 6.4
2017-Oct-17 08:30N 35°02' W 120°55'3 6.2
2017-Oct-17 08:00N 34°59' W 120°53'3 6.1
2017-Oct-17 07:31N 34°57' W 120°51'3 6.0
2017-Oct-17 07:00N 34°54' W 120°49'3 6.3
2017-Oct-17 06:30N 34°51' W 120°48'3 6.7
2017-Oct-17 06:00N 34°47' W 120°48'3 6.6
2017-Oct-17 05:30N 34°44' W 120°47'3 6.6
2017-Oct-17 05:00N 34°41' W 120°47'3 6.5
2017-Oct-17 04:30N 34°38' W 120°47'3 6.3
2017-Oct-17 04:00N 34°35' W 120°44'3 6.6
2017-Oct-17 03:30N 34°33' W 120°41'3 6.5
2017-Oct-17 03:00N 34°31' W 120°38'3 6.1
2017-Oct-17 02:29N 34°29' W 120°36'3 5.9
2017-Oct-17 02:00N 34°27' W 120°33'3 5.8
2017-Oct-17 01:30N 34°25' W 120°30'3 5.5
2017-Oct-17 01:00N 34°23' W 120°28'3 5.5
2017-Oct-17 00:30N 34°23' W 120°24'3 5.4
2017-Oct-17 00:00N 34°22' W 120°21'3 5.3
2017-Oct-16 23:28N 34°22' W 120°18'3 5.7
2017-Oct-16 23:00N 34°22' W 120°14'3 5.7
2017-Oct-16 22:29N 34°21' W 120°11'3 5.8
2017-Oct-16 22:00N 34°21' W 120°08'3 6.0
2017-Oct-16 21:30N 34°21' W 120°04'3 6.3
2017-Oct-16 21:00N 34°20' W 120°00'3 6.3
2017-Oct-16 20:30N 34°20' W 119°56'3 6.3
2017-Oct-16 19:59N 34°19' W 119°52'3 6.2
2017-Oct-16 19:30N 34°19' W 119°49'3 6.0
2017-Oct-16 18:59N 34°20' W 119°45'3 5.6
2017-Oct-16 18:30N 34°21' W 119°43'3 5.0
2017-Oct-16 18:00N 34°23' W 119°40'1 2.5
2017-Oct-16 17:30N 34°24' W 119°40'0 0.8
2017-Oct-16 16:59N 34°25' W 119°40'0 0.0
2017-Oct-16 16:29N 34°25' W 119°40'0 0.0
2017-Oct-16 16:00N 34°25' W 119°40'0 0.0
2017-Oct-16 15:25N 34°25' W 119°40'0 1.1
2017-Oct-16 15:00N 34°24' W 119°40'3 6.2
2017-Oct-16 14:28N 34°21' W 119°40'8 8.1
2017-Oct-16 13:30N 34°13' W 119°37'4 7.3
2017-Oct-16 12:59N 34°11' W 119°33'4 8.1
2017-Oct-16 12:30N 34°09' W 119°29'5 8.3
2017-Oct-16 11:53N 34°07' W 119°23'3 8.5
2017-Oct-16 11:29N 34°06' W 119°19'4 8.5
2017-Oct-16 11:00N 34°04' W 119°15'5 8.7
2017-Oct-16 10:27N 34°02' W 119°10'4 8.6
2017-Oct-16 10:00N 34°00' W 119°06'4 8.5
2017-Oct-16 09:30N 33°59' W 119°01'4 8.4
2017-Oct-16 09:00N 33°57' W 118°56'5 8.2
2017-Oct-16 08:26N 33°54' W 118°51'4 8.1
2017-Oct-16 07:56N 33°52' W 118°47'4 7.9
2017-Oct-16 07:30N 33°51' W 118°44'10 7.9
2017-Oct-16 06:12N 33°46' W 118°33'2 8.3
2017-Oct-16 06:00N 33°45' W 118°31'13 7.7
2017-Oct-16 04:15N 33°41' W 118°16'3 1.3
2017-Oct-16 02:16N 33°44' W 118°16'0 0.9
2017-Oct-16 01:56N 33°43' W 118°16'3 6.1
2017-Oct-16 01:27N 33°45' W 118°13'2 0.8
2017-Oct-15 23:19N 33°46' W 118°13'0 0.0
2017-Oct-15 20:31N 33°46' W 118°13'0 0.0
2017-Oct-15 20:25N 33°46' W 118°13'0 0.0
2017-Oct-15 19:55N 33°46' W 118°13'0 0.0
2017-Oct-15 19:01N 33°46' W 118°13'0 0.0
2017-Oct-15 18:43N 33°46' W 118°13'0 0.0
2017-Oct-15 18:19N 33°46' W 118°13'0 0.0
2017-Oct-15 17:49N 33°46' W 118°13'0 0.0
2017-Oct-15 17:25N 33°46' W 118°13'0 0.0
2017-Oct-15 16:16N 33°46' W 118°13'0 0.0
2017-Oct-15 15:22N 33°46' W 118°13'0 0.0
2017-Oct-15 14:52N 33°46' W 118°13'0 0.0
2017-Oct-15 13:52N 33°46' W 118°13'0 0.0
2017-Oct-15 13:22N 33°46' W 118°13'0 0.0
2017-Oct-15 12:58N 33°46' W 118°13'0 0.0
2017-Oct-15 12:25N 33°46' W 118°13'0 0.0
2017-Oct-15 10:16N 33°46' W 118°13'0 0.0
2017-Oct-15 09:58N 33°46' W 118°13'0 0.0
2017-Oct-15 09:28N 33°46' W 118°13'0 0.0
2017-Oct-15 08:55N 33°46' W 118°13'0 0.0
2017-Oct-15 08:28N 33°46' W 118°13'0 0.0
2017-Oct-15 07:58N 33°46' W 118°13'0 0.0
2017-Oct-15 07:28N 33°46' W 118°13'0 0.0
2017-Oct-15 06:58N 33°46' W 118°13'0 0.0
2017-Oct-15 06:28N 33°46' W 118°13'0 0.0
2017-Oct-15 05:58N 33°46' W 118°13'0 0.0
2017-Oct-15 05:28N 33°46' W 118°13'0 0.0
2017-Oct-15 04:22N 33°46' W 118°13'0 0.0
2017-Oct-15 03:58N 33°46' W 118°13'0 0.0
2017-Oct-15 03:25N 33°46' W 118°13'0 0.0
2017-Oct-15 02:55N 33°46' W 118°13'0 0.0
2017-Oct-15 02:28N 33°46' W 118°13'0 0.0
2017-Oct-15 01:58N 33°46' W 118°13'0 0.0
2017-Oct-15 01:28N 33°46' W 118°13'0 0.0
2017-Oct-15 00:58N 33°46' W 118°13'0 0.0
2017-Oct-15 00:22N 33°46' W 118°13'0 0.0
2017-Oct-14 23:58N 33°46' W 118°13'0 0.0
2017-Oct-14 23:28N 33°46' W 118°13'0 0.0
2017-Oct-14 22:58N 33°46' W 118°13'0 0.0
2017-Oct-14 22:28N 33°46' W 118°13'0 0.0
2017-Oct-14 21:58N 33°46' W 118°13'0 0.0
2017-Oct-14 21:28N 33°46' W 118°13'0 0.0
2017-Oct-14 20:58N 33°46' W 118°13'0 0.0
2017-Oct-14 20:28N 33°46' W 118°13'0 0.0
2017-Oct-14 19:58N 33°46' W 118°13'0 0.0
2017-Oct-14 19:22N 33°46' W 118°13'0 0.0
2017-Oct-14 18:58N 33°46' W 118°13'0 0.0
2017-Oct-14 18:25N 33°46' W 118°13'0 0.0
2017-Oct-14 17:52N 33°46' W 118°13'0 0.0
2017-Oct-14 09:40N 33°46' W 118°13'0 0.0
2017-Oct-14 09:22N 33°46' W 118°13'0 0.0
2017-Oct-14 07:58N 33°46' W 118°13'0 0.0
2017-Oct-14 07:16N 33°46' W 118°13'0 0.0
2017-Oct-14 06:58N 33°46' W 118°13'0 0.0
2017-Oct-14 06:25N 33°46' W 118°13'0 0.0
2017-Oct-14 05:55N 33°46' W 118°13'0 0.0
2017-Oct-14 05:22N 33°46' W 118°13'0 0.0
2017-Oct-14 04:55N 33°46' W 118°13'0 0.0
2017-Oct-14 04:28N 33°46' W 118°13'0 0.0
2017-Oct-14 03:52N 33°46' W 118°13'0 0.0
2017-Oct-14 03:22N 33°46' W 118°13'0 0.0
2017-Oct-14 02:58N 33°46' W 118°13'0 0.0
2017-Oct-14 02:16N 33°46' W 118°13'0 0.0
2017-Oct-14 01:58N 33°46' W 118°13'0 0.0
2017-Oct-14 01:22N 33°46' W 118°13'0 0.0
2017-Oct-14 00:58N 33°46' W 118°13'0 0.0
2017-Oct-14 00:28N 33°46' W 118°13'0 0.0
2017-Oct-13 23:58N 33°46' W 118°13'0 0.0
2017-Oct-13 23:22N 33°46' W 118°13'0 0.0
2017-Oct-13 21:25N 33°46' W 118°13'0 0.0
2017-Oct-13 20:55N 33°46' W 118°13'0 0.0
2017-Oct-13 19:13N 33°46' W 118°13'0 0.0
2017-Oct-13 17:37N 33°46' W 118°13'0 0.0
2017-Oct-13 17:19N 33°46' W 118°13'0 0.0
2017-Oct-13 16:55N 33°46' W 118°13'0 0.0
2017-Oct-13 13:16N 33°46' W 118°13'0 0.0
2017-Oct-13 12:58N 33°46' W 118°13'0 0.0
2017-Oct-13 12:28N 33°46' W 118°13'0 0.0
2017-Oct-13 11:49N 33°46' W 118°13'0 0.0
2017-Oct-13 11:28N 33°46' W 118°13'0 0.0
2017-Oct-13 10:58N 33°46' W 118°13'0 0.0
2017-Oct-13 10:22N 33°46' W 118°13'0 0.0
2017-Oct-13 09:52N 33°46' W 118°13'0 0.0
2017-Oct-13 09:28N 33°46' W 118°13'0 0.0
2017-Oct-13 08:40N 33°46' W 118°13'0 0.0
2017-Oct-13 08:28N 33°46' W 118°13'0 0.0
2017-Oct-13 07:04N 33°46' W 118°13'0 0.0
2017-Oct-13 06:58N 33°46' W 118°13'0 0.0
2017-Oct-13 06:28N 33°46' W 118°13'0 0.0
2017-Oct-13 05:52N 33°46' W 118°13'0 0.0
2017-Oct-13 01:16N 33°46' W 118°13'0 0.0
2017-Oct-12 19:31N 33°46' W 118°13'0 0.0
2017-Oct-12 18:13N 33°46' W 118°13'0 0.0
2017-Oct-12 09:46N 33°46' W 118°13'0 0.0
2017-Oct-12 09:10N 33°46' W 118°13'0 0.0
2017-Oct-12 08:40N 33°46' W 118°13'0 0.0
2017-Oct-12 08:13N 33°46' W 118°13'0 0.0
2017-Oct-12 07:52N 33°46' W 118°13'0 0.0
2017-Oct-12 07:13N 33°46' W 118°13'0 0.0
2017-Oct-12 06:46N 33°46' W 118°13'0 0.0
2017-Oct-12 06:28N 33°46' W 118°13'0 0.0
2017-Oct-12 05:58N 33°46' W 118°13'0 0.0
2017-Oct-12 05:25N 33°46' W 118°13'0 0.0
2017-Oct-12 03:31N 33°46' W 118°13'0 0.0
2017-Oct-12 01:46N 33°46' W 118°13'0 0.0
2017-Oct-12 01:28N 33°46' W 118°13'0 0.0
2017-Oct-12 00:58N 33°46' W 118°13'0 0.0
2017-Oct-12 00:22N 33°46' W 118°13'0 0.0
2017-Oct-11 23:55N 33°46' W 118°13'0 0.0
2017-Oct-11 23:22N 33°46' W 118°13'0 0.0
2017-Oct-11 22:58N 33°46' W 118°13'0 0.0
2017-Oct-11 20:07N 33°46' W 118°13'0 0.0
2017-Oct-11 19:55N 33°46' W 118°13'0 0.0
2017-Oct-11 16:49N 33°46' W 118°13'0 0.0
2017-Oct-10 23:58N 33°46' W 118°13'0 0.0
2017-Oct-10 23:28N 33°46' W 118°13'0 0.0
2017-Oct-10 22:55N 33°46' W 118°13'0 0.0
2017-Oct-10 22:28N 33°46' W 118°13'0 0.0
2017-Oct-10 21:58N 33°46' W 118°13'0 0.0
2017-Oct-10 21:28N 33°46' W 118°13'0 0.0
2017-Oct-10 20:58N 33°46' W 118°13'0 0.0
2017-Oct-10 20:28N 33°46' W 118°13'0 0.0
2017-Oct-10 19:58N 33°46' W 118°13'0 0.0
2017-Oct-10 19:28N 33°46' W 118°13'0 0.0
2017-Oct-10 18:58N 33°46' W 118°13'0 0.0
2017-Oct-10 17:04N 33°46' W 118°13'0 0.0
2017-Oct-10 16:58N 33°46' W 118°13'0 0.0
2017-Oct-10 16:25N 33°46' W 118°13'0 0.0
2017-Oct-10 15:58N 33°46' W 118°13'0 0.0
2017-Oct-10 15:28N 33°46' W 118°13'0 0.0
2017-Oct-10 14:58N 33°46' W 118°13'0 0.0
2017-Oct-10 13:55N 33°46' W 118°13'0 0.0
2017-Oct-10 13:28N 33°46' W 118°13'0 0.0
2017-Oct-10 12:55N 33°46' W 118°13'0 0.0
2017-Oct-10 12:28N 33°46' W 118°13'0 0.0
2017-Oct-10 11:49N 33°46' W 118°13'0 0.0
2017-Oct-10 11:28N 33°46' W 118°13'0 0.0
2017-Oct-10 10:58N 33°46' W 118°13'0 0.0
2017-Oct-10 10:28N 33°46' W 118°13'0 0.0
2017-Oct-10 09:58N 33°46' W 118°13'0 0.0
2017-Oct-10 09:28N 33°46' W 118°13'0 0.0
2017-Oct-10 08:58N 33°46' W 118°13'0 0.0
2017-Oct-10 08:28N 33°46' W 118°13'0 0.0
2017-Oct-10 07:49N 33°46' W 118°13'0 0.0
2017-Oct-10 07:28N 33°46' W 118°13'0 0.0
2017-Oct-10 06:58N 33°46' W 118°13'0 0.0
2017-Oct-10 06:25N 33°46' W 118°13'0 0.0
2017-Oct-10 05:58N 33°46' W 118°13'0 0.0
2017-Oct-10 05:28N 33°46' W 118°13'0 0.0
2017-Oct-10 04:58N 33°46' W 118°13'0 0.0
2017-Oct-10 04:28N 33°46' W 118°13'0 0.0
2017-Oct-10 03:58N 33°46' W 118°13'0 0.0
2017-Oct-10 03:28N 33°46' W 118°13'0 0.0
2017-Oct-10 02:58N 33°46' W 118°13'0 0.0
2017-Oct-10 02:28N 33°46' W 118°13'0 0.0
2017-Oct-10 01:58N 33°46' W 118°13'0 0.0
2017-Oct-10 01:28N 33°46' W 118°13'0 0.0
2017-Oct-10 00:55N 33°46' W 118°13'0 0.0
2017-Oct-10 00:28N 33°46' W 118°13'0 0.0
2017-Oct-09 23:58N 33°46' W 118°13'0 0.0
2017-Oct-09 23:28N 33°46' W 118°13'0 0.0
2017-Oct-09 22:58N 33°46' W 118°13'0 0.0
2017-Oct-09 22:28N 33°46' W 118°13'0 0.0
2017-Oct-09 21:58N 33°46' W 118°13'0 0.0
2017-Oct-09 21:28N 33°46' W 118°13'0 0.0
2017-Oct-09 20:46N 33°46' W 118°13'0 0.0
2017-Oct-09 20:22N 33°46' W 118°13'0 0.0
2017-Oct-09 19:58N 33°46' W 118°13'0 0.0
2017-Oct-09 18:46N 33°46' W 118°13'0 0.0
2017-Oct-09 18:28N 33°46' W 118°13'0 0.0
2017-Oct-09 17:58N 33°46' W 118°13'0 0.0
2017-Oct-09 17:22N 33°46' W 118°13'0 0.0
2017-Oct-09 16:58N 33°46' W 118°13'0 0.0
2017-Oct-09 02:10N 33°46' W 118°13'0 0.0
2017-Oct-09 01:46N 33°46' W 118°13'0 0.0
2017-Oct-08 22:58N 33°46' W 118°13'0 0.0
2017-Oct-08 22:28N 33°46' W 118°13'0 0.0
2017-Oct-08 21:52N 33°46' W 118°13'0 0.0
2017-Oct-08 18:10N 33°46' W 118°13'0 0.0
2017-Oct-08 17:52N 33°46' W 118°13'0 0.0
2017-Oct-08 17:16N 33°46' W 118°13'0 0.0
2017-Oct-08 16:58N 33°46' W 118°13'0 0.0
2017-Oct-08 16:28N 33°46' W 118°13'0 0.0
2017-Oct-08 15:52N 33°46' W 118°13'0 0.0
2017-Oct-08 15:28N 33°46' W 118°13'0 0.0
2017-Oct-08 14:55N 33°46' W 118°13'0 0.0
2017-Oct-08 14:25N 33°46' W 118°13'0 0.0
2017-Oct-08 13:49N 33°46' W 118°13'0 0.0
2017-Oct-08 13:28N 33°46' W 118°13'0 0.0
2017-Oct-08 11:04N 33°46' W 118°13'0 0.0
2017-Oct-08 10:40N 33°46' W 118°13'0 0.0
2017-Oct-08 10:19N 33°46' W 118°13'0 0.0
2017-Oct-08 09:58N 33°46' W 118°13'0 0.0
2017-Oct-08 09:25N 33°46' W 118°13'0 0.0
2017-Oct-08 08:58N 33°46' W 118°13'0 0.0
2017-Oct-08 08:25N 33°46' W 118°13'0 0.0
2017-Oct-08 07:40N 33°46' W 118°13'0 0.0
2017-Oct-08 07:28N 33°46' W 118°13'0 0.0
2017-Oct-08 06:58N 33°46' W 118°13'0 0.0
2017-Oct-08 06:25N 33°46' W 118°13'0 0.0
2017-Oct-08 05:58N 33°46' W 118°13'0 0.0
2017-Oct-08 05:28N 33°46' W 118°13'0 0.0
2017-Oct-08 04:40N 33°46' W 118°13'0 0.0
2017-Oct-08 04:22N 33°46' W 118°13'0 0.0
2017-Oct-08 03:58N 33°46' W 118°13'0 0.0
2017-Oct-08 03:10N 33°46' W 118°13'0 0.0
2017-Oct-08 02:58N 33°46' W 118°13'0 0.0
2017-Oct-08 02:10N 33°46' W 118°13'0 0.0
2017-Oct-08 01:52N 33°46' W 118°13'0 0.0
2017-Oct-08 01:28N 33°46' W 118°13'0 0.0
2017-Oct-08 00:58N 33°46' W 118°13'0 0.0
2017-Oct-08 00:22N 33°46' W 118°13'0 0.0
2017-Oct-07 23:58N 33°46' W 118°13'0 0.0
2017-Oct-07 23:28N 33°46' W 118°13'0 0.0
2017-Oct-07 22:58N 33°46' W 118°13'0 0.0
2017-Oct-07 22:28N 33°46' W 118°13'0 0.0
2017-Oct-07 21:58N 33°46' W 118°13'0 0.0
2017-Oct-07 21:22N 33°46' W 118°13'0 0.0
2017-Oct-07 20:58N 33°46' W 118°13'0 0.0
2017-Oct-07 20:28N 33°46' W 118°13'0 0.0
2017-Oct-07 19:58N 33°46' W 118°13'0 0.0
2017-Oct-07 19:28N 33°46' W 118°13'0 0.0
2017-Oct-07 18:58N 33°46' W 118°13'0 0.0
2017-Oct-07 18:22N 33°46' W 118°13'0 0.0
2017-Oct-07 17:58N 33°46' W 118°13'0 0.0
2017-Oct-07 17:28N 33°46' W 118°13'0 0.0
2017-Oct-07 16:52N 33°46' W 118°13'0 0.0
2017-Oct-07 16:28N 33°46' W 118°13'0 0.0
2017-Oct-07 14:58N 33°46' W 118°13'0 0.0
2017-Oct-07 14:25N 33°46' W 118°13'0 0.0
2017-Oct-07 13:58N 33°46' W 118°13'  

Dump ship's entire track history